Time;durP1;ratioP1;P1;durP2;ratioP2;P2;SDS_P1;SDS_P2;PMS_P1;PMS_P2;Temp;Humidity;BMP_temperature;BMP_pressure;BME280_temperature;BME280_humidity;BME280_pressure;Samples;Min_cycle;Max_cycle;Signal;HPM_P1;HPM_P2
2023/05/30 00:01:27;;;;;;;2.33;0.32;;;11.70;63.20;;;;;;6076408;23;20022;-79
2023/05/30 00:03:55;;;;;;;3.45;0.40;;;11.70;63.20;;;;;;6100617;23;20021;-78
2023/05/30 00:06:23;;;;;;;3.28;0.50;;;11.70;63.20;;;;;;6100516;23;20029;-79
2023/05/30 00:08:50;;;;;;;2.92;0.73;;;11.60;63.30;;;;;;6100068;23;20022;-79
2023/05/30 00:11:20;;;;;;;5.03;0.80;;;11.60;63.40;;;;;;6100665;23;20030;-78
2023/05/30 00:13:48;;;;;;;3.50;0.35;;;11.60;63.50;;;;;;6100110;23;20024;-78
2023/05/30 00:16:19;;;;;;;2.75;0.73;;;11.60;63.60;;;;;;6100935;23;20025;-78
2023/05/30 00:18:46;;;;;;;2.80;0.32;;;11.60;63.70;;;;;;6124797;23;20060;-79
2023/05/30 00:21:17;;;;;;;2.95;0.47;;;11.60;63.90;;;;;;6100002;23;20018;-78
2023/05/30 00:23:45;;;;;;;2.67;0.50;;;11.50;63.90;;;;;;6149053;23;20044;-78
2023/05/30 00:26:14;;;;;;;3.42;0.77;;;11.50;64.20;;;;;;6124101;23;20445;-78
2023/05/30 00:28:48;;;;;;;3.78;0.45;;;11.50;64.60;;;;;;6101219;23;20069;-79
2023/05/30 00:31:15;;;;;;;1.75;0.30;;;11.40;64.60;;;;;;6148669;23;20030;-78
2023/05/30 00:33:42;;;;;;;3.20;0.57;;;11.40;65.30;;;;;;6099863;23;20032;-78
2023/05/30 00:36:10;;;;;;;5.50;0.50;;;11.40;64.90;;;;;;6124337;23;20109;-78
2023/05/30 00:38:37;;;;;;;3.60;0.70;;;11.30;65.00;;;;;;6124364;23;20026;-78
2023/05/30 00:41:04;;;;;;;2.47;0.52;;;11.30;65.00;;;;;;6124089;23;20022;-78
2023/05/30 00:43:31;;;;;;;3.35;0.50;;;11.30;65.10;;;;;;6111914;23;20025;-79
2023/05/30 00:45:58;;;;;;;2.58;0.40;;;11.20;65.10;;;;;;6153342;23;20048;-78
2023/05/30 00:48:25;;;;;;;4.00;0.40;;;11.20;65.40;;;;;;6129246;23;20076;-78
2023/05/30 00:50:53;;;;;;;1.25;0.30;;;11.20;65.40;;;;;;6128860;23;20076;-79
2023/05/30 00:53:22;;;;;;;2.85;0.40;;;11.20;65.60;;;;;;6128844;23;20088;-79
2023/05/30 00:55:50;;;;;;;2.45;1.23;;;11.20;65.60;;;;;;6128970;23;20029;-79
2023/05/30 00:58:19;;;;;;;2.53;0.40;;;11.10;65.60;;;;;;6128846;23;20048;-78
2023/05/30 01:00:47;;;;;;;3.35;0.32;;;11.10;65.90;;;;;;6128662;23;20072;-78
2023/05/30 01:03:15;;;;;;;2.28;0.45;;;11.10;65.90;;;;;;6128668;23;20021;-78
2023/05/30 01:05:43;;;;;;;2.55;0.40;;;11.10;66.00;;;;;;6104762;23;20025;-78
2023/05/30 01:08:11;;;;;;;2.13;0.43;;;11.00;66.10;;;;;;6128681;23;20076;-78
2023/05/30 01:10:38;;;;;;;2.20;0.40;;;11.00;66.10;;;;;;6153550;23;20017;-79
2023/05/30 01:13:42;;;;;;;2.65;0.43;;;11.10;66.30;;;;;;6128694;23;20407;-78
2023/05/30 01:16:20;;;;;;;5.05;0.52;;;11.10;66.50;;;;;;6153340;23;20017;-78
2023/05/30 01:18:53;;;;;;;3.80;0.30;;;11.00;66.50;;;;;;6153200;23;20354;-78
2023/05/30 01:21:21;;;;;;;1.42;0.30;;;11.00;66.50;;;;;;6154695;23;20029;-78
2023/05/30 01:24:06;;;;;;;1.30;0.30;;;11.00;66.60;;;;;;6129369;23;20018;-78
2023/05/30 01:27:06;;;;;;;2.08;0.45;;;10.90;66.70;;;;;;6153365;23;20018;-79
2023/05/30 01:29:35;;;;;;;1.92;0.35;;;10.90;66.80;;;;;;6153191;23;20021;-78
2023/05/30 01:32:03;;;;;;;1.48;0.40;;;10.90;66.80;;;;;;6152832;23;20033;-78
2023/05/30 01:34:34;;;;;;;3.97;0.50;;;10.90;66.90;;;;;;6153622;23;20032;-78
2023/05/30 01:37:02;;;;;;;5.00;0.55;;;10.80;67.10;;;;;;6152944;23;20025;-78
2023/05/30 01:39:30;;;;;;;2.65;0.30;;;10.80;67.30;;;;;;6128554;23;20022;-79
2023/05/30 01:42:01;;;;;;;3.05;0.40;;;10.80;67.30;;;;;;6128368;23;20017;-79
2023/05/30 01:44:37;;;;;;;1.70;0.30;;;10.80;67.40;;;;;;6152777;23;20076;-78
2023/05/30 01:47:17;;;;;;;3.92;0.50;;;10.80;67.40;;;;;;6153042;23;20044;-79
2023/05/30 01:50:07;;;;;;;1.85;0.65;;;10.80;67.40;;;;;;6153174;23;20028;-79
2023/05/30 01:52:38;;;;;;;4.72;0.60;;;10.90;68.00;;;;;;6129007;23;20338;-86
2023/05/30 01:55:08;;;;;;;2.05;0.73;;;10.90;67.40;;;;;;6154138;23;20029;-86
2023/05/30 01:57:46;;;;;;;2.35;0.40;;;10.90;67.40;;;;;;6154294;23;20033;-86
2023/05/30 02:00:16;;;;;;;3.97;0.30;;;10.90;67.40;;;;;;6154088;23;20021;-86
2023/05/30 02:02:45;;;;;;;2.10;0.45;;;10.90;67.40;;;;;;6130088;23;20017;-86
2023/05/30 02:05:12;;;;;;;3.20;0.30;;;11.00;67.30;;;;;;6105721;23;20024;-85
2023/05/30 02:07:39;;;;;;;2.92;0.30;;;11.10;67.20;;;;;;6081364;23;20018;-85
2023/05/30 02:10:09;;;;;;;3.60;0.50;;;11.10;67.10;;;;;;6082592;23;20060;-85
2023/05/30 02:12:46;;;;;;;2.00;0.52;;;11.20;67.00;;;;;;6155565;23;20585;-85
2023/05/30 02:15:13;;;;;;;2.15;0.30;;;11.20;67.00;;;;;;6105425;23;20062;-85
2023/05/30 02:17:41;;;;;;;1.83;0.30;;;11.30;67.00;;;;;;6129337;23;20021;-85
2023/05/30 02:20:09;;;;;;;3.33;0.45;;;11.30;67.00;;;;;;6129818;23;20028;-85
2023/05/30 02:22:36;;;;;;;3.10;0.50;;;11.30;67.10;;;;;;6105166;23;20068;-85
2023/05/30 02:25:04;;;;;;;2.88;0.40;;;11.40;67.10;;;;;;6155328;23;20018;-85
2023/05/30 02:27:38;;;;;;;3.90;0.45;;;11.40;67.10;;;;;;6154055;23;20025;-85
2023/05/30 02:30:06;;;;;;;4.72;0.82;;;11.40;67.10;;;;;;6105305;23;20044;-85
2023/05/30 02:32:33;;;;;;;2.55;0.35;;;11.40;67.10;;;;;;6153766;23;20067;-85
2023/05/30 02:35:01;;;;;;;4.82;0.43;;;11.40;67.10;;;;;;6081159;23;20486;-85
2023/05/30 02:37:29;;;;;;;2.90;0.30;;;11.50;67.20;;;;;;6104933;23;20329;-85
2023/05/30 02:39:57;;;;;;;4.57;0.93;;;11.50;67.10;;;;;;6104988;23;20470;-85
2023/05/30 02:42:25;;;;;;;2.38;0.30;;;11.50;67.10;;;;;;6129189;23;20025;-85
2023/05/30 02:44:52;;;;;;;2.42;0.45;;;11.60;67.10;;;;;;6125484;23;20021;-85
2023/05/30 02:47:20;;;;;;;4.97;0.75;;;11.60;67.00;;;;;;6102296;23;20022;-85
2023/05/30 02:49:48;;;;;;;3.78;0.38;;;11.60;67.00;;;;;;6101863;23;20482;-85
2023/05/30 02:52:16;;;;;;;2.70;0.57;;;11.70;67.00;;;;;;6101764;23;20028;-86
2023/05/30 02:54:52;;;;;;;2.00;0.40;;;11.70;67.00;;;;;;6102984;23;20440;-78
2023/05/30 02:57:34;;;;;;;2.53;0.80;;;11.70;67.10;;;;;;6125814;23;20744;-77
2023/05/30 03:00:15;;;;;;;2.58;0.63;;;11.70;67.20;;;;;;6125122;23;20400;-79
2023/05/30 03:02:57;;;;;;;3.63;0.50;;;11.70;67.20;;;;;;6056322;23;20022;-78
2023/05/30 03:05:25;;;;;;;3.17;0.60;;;11.70;67.30;;;;;;6053919;23;20440;-78
2023/05/30 03:07:52;;;;;;;2.67;0.40;;;11.70;67.40;;;;;;6100547;23;20018;-78
2023/05/30 03:10:19;;;;;;;2.20;0.43;;;11.70;67.40;;;;;;6124931;23;20030;-78
2023/05/30 03:12:49;;;;;;;4.72;0.70;;;11.70;67.40;;;;;;6077287;23;20109;-78
2023/05/30 03:15:17;;;;;;;4.10;0.50;;;11.70;67.40;;;;;;6077276;23;20021;-78
2023/05/30 03:17:44;;;;;;;2.55;0.60;;;11.70;67.40;;;;;;6100705;23;20101;-78
2023/05/30 03:20:12;;;;;;;2.55;0.50;;;11.70;67.40;;;;;;6077079;23;20026;-78
2023/05/30 03:22:41;;;;;;;2.85;0.55;;;11.70;67.50;;;;;;6053091;23;20073;-78
2023/05/30 03:25:09;;;;;;;2.67;0.55;;;11.70;67.50;;;;;;6124598;23;20022;-78
2023/05/30 03:27:37;;;;;;;3.03;0.43;;;11.70;67.60;;;;;;6053205;23;20025;-78
2023/05/30 03:30:06;;;;;;;2.92;0.60;;;11.70;67.70;;;;;;6100827;23;20022;-78
2023/05/30 03:32:35;;;;;;;2.65;0.50;;;11.70;67.80;;;;;;6077021;23;20028;-78
2023/05/30 03:35:02;;;;;;;5.53;0.68;;;11.70;67.80;;;;;;6100542;23;20052;-78
2023/05/30 03:37:31;;;;;;;6.15;0.70;;;11.70;68.00;;;;;;6077988;23;20022;-78
2023/05/30 03:39:58;;;;;;;2.72;0.50;;;11.70;68.10;;;;;;6076531;23;20026;-78
2023/05/30 03:42:26;;;;;;;2.08;0.50;;;11.70;68.10;;;;;;6076472;23;20048;-78
2023/05/30 03:44:53;;;;;;;4.63;0.50;;;11.70;68.00;;;;;;6092888;23;20088;-78
2023/05/30 03:47:20;;;;;;;2.25;0.50;;;11.70;68.00;;;;;;6076721;23;20105;-78
2023/05/30 03:49:47;;;;;;;2.60;0.60;;;11.70;68.00;;;;;;6076728;23;20022;-78
2023/05/30 03:52:15;;;;;;;3.95;0.85;;;11.70;68.00;;;;;;6076717;23;20076;-78
2023/05/30 03:54:42;;;;;;;3.67;0.85;;;11.70;68.00;;;;;;6052725;23;20026;-78
2023/05/30 03:57:11;;;;;;;2.00;0.50;;;11.80;68.10;;;;;;6124849;23;20053;-78
2023/05/30 03:59:38;;;;;;;5.10;0.65;;;11.80;68.00;;;;;;6124510;23;20033;-78
2023/05/30 04:02:05;;;;;;;4.18;0.70;;;11.90;68.00;;;;;;6124465;23;20044;-78
2023/05/30 04:04:32;;;;;;;3.80;0.93;;;11.90;68.00;;;;;;6076462;23;20026;-78
2023/05/30 04:07:00;;;;;;;3.38;0.90;;;11.90;68.20;;;;;;6076140;23;20113;-78
2023/05/30 04:09:27;;;;;;;5.78;1.13;;;11.90;68.90;;;;;;6076388;23;20069;-78
2023/05/30 04:11:54;;;;;;;2.97;0.77;;;11.90;68.20;;;;;;6076648;23;20380;-78
2023/05/30 04:14:24;;;;;;;3.15;0.60;;;11.90;68.20;;;;;;6076103;23;20105;-78
2023/05/30 04:16:51;;;;;;;3.38;0.75;;;12.00;68.20;;;;;;6076030;23;20021;-78
2023/05/30 04:19:18;;;;;;;5.07;1.35;;;12.00;68.20;;;;;;6076104;23;20432;-78
2023/05/30 04:21:47;;;;;;;3.00;0.82;;;12.00;68.90;;;;;;6076788;23;20105;-78
2023/05/30 04:24:15;;;;;;;3.72;0.90;;;11.90;68.30;;;;;;6076347;23;20024;-78
2023/05/30 04:26:48;;;;;;;2.33;0.60;;;11.90;68.40;;;;;;6100641;23;20022;-78
2023/05/30 04:29:19;;;;;;;6.25;1.10;;;11.90;68.40;;;;;;6077589;23;20021;-78
2023/05/30 04:31:48;;;;;;;3.00;0.85;;;11.90;68.40;;;;;;6125755;23;20073;-78
2023/05/30 04:34:17;;;;;;;4.55;1.20;;;12.00;68.50;;;;;;6124235;23;20290;-78
2023/05/30 04:36:44;;;;;;;6.35;1.00;;;11.90;68.50;;;;;;6099929;23;20026;-78
2023/05/30 04:39:12;;;;;;;6.55;1.17;;;11.90;68.50;;;;;;6075840;23;20025;-78
2023/05/30 04:41:40;;;;;;;5.88;1.40;;;11.90;68.50;;;;;;6076087;23;20108;-78
2023/05/30 04:44:08;;;;;;;5.40;1.35;;;12.00;68.50;;;;;;6123629;23;20022;-78
2023/05/30 04:46:36;;;;;;;4.85;0.98;;;12.10;68.50;;;;;;6099537;23;20022;-78
2023/05/30 04:49:03;;;;;;;7.30;1.25;;;12.10;68.40;;;;;;6100048;23;20018;-78
2023/05/30 04:51:32;;;;;;;4.28;1.05;;;12.10;68.20;;;;;;6124048;23;20018;-78
2023/05/30 04:54:00;;;;;;;5.15;1.35;;;12.10;68.30;;;;;;6100017;23;20211;-78
2023/05/30 04:56:27;;;;;;;5.15;1.20;;;12.10;68.40;;;;;;6076657;23;20022;-86
2023/05/30 04:58:54;;;;;;;4.32;1.33;;;12.10;68.50;;;;;;6076847;23;20423;-85
2023/05/30 05:01:23;;;;;;;3.10;1.08;;;12.20;68.50;;;;;;6100500;23;20025;-86
2023/05/30 05:03:51;;;;;;;3.15;0.85;;;12.20;68.50;;;;;;6077356;23;20453;-85
2023/05/30 05:06:20;;;;;;;4.35;1.20;;;12.20;68.30;;;;;;6124322;23;20080;-85
2023/05/30 05:08:48;;;;;;;5.55;1.42;;;12.20;68.40;;;;;;6076550;23;20354;-85
2023/05/30 05:11:17;;;;;;;6.40;1.38;;;12.30;68.40;;;;;;6101199;23;20500;-85
2023/05/30 05:13:44;;;;;;;6.93;1.42;;;12.30;68.30;;;;;;6100384;23;20026;-85
2023/05/30 05:16:12;;;;;;;2.15;0.73;;;12.30;68.20;;;;;;6052986;23;20025;-86
2023/05/30 05:18:39;;;;;;;3.50;1.10;;;12.30;68.10;;;;;;6100624;23;20025;-86
2023/05/30 05:21:06;;;;;;;2.92;1.10;;;12.40;68.10;;;;;;6100601;23;20030;-85
2023/05/30 05:23:33;;;;;;;7.38;1.10;;;12.40;67.90;;;;;;6076677;23;20436;-86
2023/05/30 05:26:01;;;;;;;3.05;0.85;;;12.50;68.00;;;;;;6100359;23;20025;-86
2023/05/30 05:28:28;;;;;;;4.95;1.20;;;12.50;67.90;;;;;;6124595;23;20018;-86
2023/05/30 05:30:56;;;;;;;4.63;1.30;;;12.50;67.70;;;;;;6076714;23;20030;-86
2023/05/30 05:33:23;;;;;;;3.00;1.00;;;12.60;68.40;;;;;;6076412;23;20428;-85
2023/05/30 05:35:50;;;;;;;3.15;0.80;;;12.60;67.70;;;;;;6076816;23;20037;-86
2023/05/30 05:38:17;;;;;;;3.25;0.82;;;12.60;67.70;;;;;;6076478;23;20053;-85
2023/05/30 05:40:44;;;;;;;3.45;0.88;;;12.70;67.60;;;;;;6124782;23;20036;-85
2023/05/30 05:43:11;;;;;;;5.13;1.02;;;12.80;67.40;;;;;;6077474;23;20524;-86
2023/05/30 05:45:41;;;;;;;4.60;1.15;;;12.80;67.40;;;;;;6105292;23;20080;-86
2023/05/30 05:48:08;;;;;;;5.00;1.60;;;12.80;67.30;;;;;;6105507;23;20020;-86
2023/05/30 05:50:35;;;;;;;5.35;1.30;;;12.80;67.40;;;;;;6153611;23;20017;-86
2023/05/30 05:53:02;;;;;;;4.00;1.00;;;12.80;67.50;;;;;;6105581;23;20021;-86
2023/05/30 05:55:30;;;;;;;3.83;1.30;;;12.80;67.60;;;;;;6129228;23;20087;-78
2023/05/30 05:57:57;;;;;;;3.90;1.15;;;12.80;67.50;;;;;;6104444;23;20025;-78
2023/05/30 06:00:25;;;;;;;6.60;1.35;;;12.90;67.40;;;;;;6128783;23;20017;-78
2023/05/30 06:02:52;;;;;;;3.05;1.20;;;12.90;67.40;;;;;;6152574;23;20043;-79
2023/05/30 06:05:20;;;;;;;5.40;1.02;;;12.90;67.30;;;;;;6152727;23;20017;-79
2023/05/30 06:07:47;;;;;;;5.90;1.52;;;13.00;67.10;;;;;;6104400;23;20370;-79
2023/05/30 06:10:14;;;;;;;4.80;1.08;;;13.20;66.80;;;;;;6104047;23;20021;-78
2023/05/30 06:12:41;;;;;;;4.47;1.17;;;13.30;66.60;;;;;;6104047;23;20026;-79
2023/05/30 06:15:08;;;;;;;4.38;1.08;;;13.30;66.50;;;;;;6128768;23;20052;-79
2023/05/30 06:17:35;;;;;;;3.80;1.10;;;13.30;66.30;;;;;;6080269;23;20048;-79
2023/05/30 06:20:03;;;;;;;3.42;1.30;;;13.40;66.40;;;;;;6130228;23;20018;-79
2023/05/30 06:22:30;;;;;;;2.97;1.20;;;13.40;66.40;;;;;;6154707;23;20078;-79
2023/05/30 06:24:57;;;;;;;3.22;0.90;;;13.40;66.30;;;;;;6081900;23;20352;-79
2023/05/30 06:27:24;;;;;;;2.17;0.90;;;13.50;66.30;;;;;;6105996;23;20018;-79
2023/05/30 06:29:55;;;;;;;4.88;1.23;;;13.50;66.20;;;;;;6106109;23;20095;-79
2023/05/30 06:32:31;;;;;;;6.75;1.17;;;13.50;66.10;;;;;;6156242;23;20068;-78
2023/05/30 06:34:58;;;;;;;3.88;1.10;;;13.60;66.00;;;;;;6106309;23;20097;-79
2023/05/30 06:37:28;;;;;;;5.28;1.10;;;13.60;66.00;;;;;;6106217;23;20084;-78
2023/05/30 06:39:55;;;;;;;2.35;0.88;;;13.50;66.00;;;;;;6106054;23;20503;-78
2023/05/30 06:42:22;;;;;;;3.72;1.42;;;13.50;66.00;;;;;;6154646;23;20053;-78
2023/05/30 06:44:52;;;;;;;5.10;1.50;;;13.50;65.90;;;;;;6130478;23;20014;-79
2023/05/30 06:47:19;;;;;;;4.57;1.50;;;13.60;65.90;;;;;;6130183;23;20018;-78
2023/05/30 06:49:46;;;;;;;4.28;1.40;;;13.60;65.70;;;;;;6106143;23;20022;-78
2023/05/30 06:52:14;;;;;;;4.38;1.13;;;13.50;65.70;;;;;;6129877;23;20030;-78
2023/05/30 06:54:44;;;;;;;4.47;1.10;;;13.50;65.70;;;;;;6081874;23;20048;-78
2023/05/30 06:57:11;;;;;;;3.17;1.30;;;13.50;65.70;;;;;;6107431;23;20026;-78
2023/05/30 06:59:58;;;;;;;2.67;0.93;;;13.60;65.60;;;;;;6111917;23;20096;-78
2023/05/30 07:02:25;;;;;;;4.65;1.27;;;13.50;65.50;;;;;;6131476;23;20080;-78
2023/05/30 07:05:05;;;;;;;2.65;1.25;;;13.60;65.50;;;;;;6106678;23;20076;-78
2023/05/30 07:07:33;;;;;;;3.60;1.25;;;13.60;65.50;;;;;;6107486;23;20097;-78
2023/05/30 07:10:01;;;;;;;3.58;1.38;;;13.60;65.50;;;;;;6154572;23;20041;-79
2023/05/30 07:12:32;;;;;;;6.22;0.95;;;13.70;65.20;;;;;;6106525;23;20025;-78
2023/05/30 07:15:16;;;;;;;4.05;1.10;;;13.90;64.90;;;;;;6109275;23;20040;-78
2023/05/30 07:17:47;;;;;;;5.10;1.30;;;14.00;64.70;;;;;;6130555;23;20085;-79
2023/05/30 07:20:20;;;;;;;6.10;1.73;;;14.10;64.50;;;;;;6129292;23;20105;-78
2023/05/30 07:22:51;;;;;;;6.50;1.38;;;14.20;64.30;;;;;;6106806;23;20092;-78
2023/05/30 07:25:18;;;;;;;4.18;0.80;;;14.20;64.40;;;;;;6106089;23;20018;-78
2023/05/30 07:27:48;;;;;;;2.90;0.93;;;14.30;64.20;;;;;;6154216;23;20389;-79
2023/05/30 07:30:25;;;;;;;6.28;1.42;;;14.40;63.90;;;;;;6132243;23;20017;-79
2023/05/30 07:33:09;;;;;;;5.00;1.08;;;14.70;63.50;;;;;;6154275;23;20041;-78
2023/05/30 07:35:45;;;;;;;5.18;1.33;;;14.80;63.30;;;;;;6132764;23;20018;-78
2023/05/30 07:38:16;;;;;;;3.85;1.13;;;14.90;63.00;;;;;;6155791;23;20092;-79
2023/05/30 07:40:48;;;;;;;4.18;1.00;;;15.10;62.80;;;;;;6155467;23;20090;-79
2023/05/30 07:43:19;;;;;;;3.00;1.02;;;15.20;62.50;;;;;;6106270;23;20017;-79
2023/05/30 07:45:49;;;;;;;4.28;1.38;;;15.30;62.30;;;;;;6106000;23;20092;-78
2023/05/30 07:48:25;;;;;;;5.55;1.00;;;15.30;62.20;;;;;;6153916;23;20025;-78
2023/05/30 07:50:56;;;;;;;4.50;0.90;;;15.50;62.10;;;;;;6153858;23;20100;-78
2023/05/30 07:53:26;;;;;;;4.78;1.23;;;15.70;61.70;;;;;;6153862;23;20022;-78
2023/05/30 07:55:54;;;;;;;3.85;1.33;;;15.80;61.40;;;;;;6153859;23;20356;-78
2023/05/30 07:58:24;;;;;;;5.50;1.48;;;15.80;61.30;;;;;;6106452;23;20022;-78
2023/05/30 08:00:51;;;;;;;4.55;1.40;;;15.90;61.10;;;;;;6129500;23;20021;-78
2023/05/30 08:03:18;;;;;;;4.43;1.17;;;16.10;61.00;;;;;;6129622;23;20018;-78
2023/05/30 08:05:46;;;;;;;3.70;1.40;;;16.30;60.70;;;;;;6153761;23;20021;-78
2023/05/30 08:08:13;;;;;;;6.35;1.20;;;16.40;60.30;;;;;;6129864;23;20049;-79
2023/05/30 08:10:58;;;;;;;3.22;1.30;;;16.60;60.10;;;;;;6105234;23;20090;-78
2023/05/30 08:13:26;;;;;;;6.07;1.30;;;16.90;59.70;;;;;;6105173;23;20026;-79
2023/05/30 08:15:56;;;;;;;2.83;1.23;;;16.90;59.60;;;;;;6083612;23;20021;-78
2023/05/30 08:18:24;;;;;;;3.30;1.52;;;17.00;59.40;;;;;;6129275;23;20021;-78
2023/05/30 08:20:53;;;;;;;3.75;1.23;;;16.90;59.40;;;;;;6104947;23;20021;-78
2023/05/30 08:23:20;;;;;;;4.80;1.50;;;16.80;59.70;;;;;;6081933;23;20397;-78
2023/05/30 08:25:56;;;;;;;8.20;1.38;;;16.60;59.90;;;;;;6106312;23;20013;-78
2023/05/30 08:28:23;;;;;;;3.75;1.30;;;16.50;60.10;;;;;;6106344;23;20060;-78
2023/05/30 08:30:51;;;;;;;5.07;1.27;;;16.40;60.20;;;;;;6105134;23;20013;-78
2023/05/30 08:33:19;;;;;;;5.03;1.30;;;16.50;60.20;;;;;;6104995;23;20026;-78
2023/05/30 08:35:46;;;;;;;5.68;1.23;;;16.50;59.90;;;;;;6104992;23;20025;-78
2023/05/30 08:38:14;;;;;;;2.72;1.63;;;16.60;59.60;;;;;;6128914;23;20621;-78
2023/05/30 08:40:42;;;;;;;2.60;0.80;;;16.80;59.40;;;;;;6153338;23;20462;-79
2023/05/30 08:43:10;;;;;;;3.90;1.30;;;17.00;59.10;;;;;;6153386;23;20021;-85
2023/05/30 08:45:38;;;;;;;4.70;1.05;;;17.20;58.70;;;;;;6104737;23;20017;-81
2023/05/30 08:48:09;;;;;;;4.50;1.13;;;17.30;58.50;;;;;;6153354;23;20044;-86
2023/05/30 08:50:36;;;;;;;5.43;1.60;;;17.40;58.30;;;;;;6104914;23;20170;-82
2023/05/30 08:53:08;;;;;;;6.32;1.38;;;17.50;58.10;;;;;;6104618;23;20021;-80
2023/05/30 08:55:57;;;;;;;2.90;0.90;;;17.50;58.00;;;;;;6104280;23;20028;-83
2023/05/30 08:58:46;;;;;;;4.03;1.00;;;17.50;58.00;;;;;;6154852;23;20018;-80
2023/05/30 09:01:14;;;;;;;3.60;1.27;;;17.50;58.10;;;;;;6153314;23;20096;-83
2023/05/30 09:03:44;;;;;;;4.75;1.60;;;17.40;58.20;;;;;;6105111;23;20340;-79
2023/05/30 09:06:14;;;;;;;4.07;1.48;;;17.20;58.40;;;;;;6154780;23;20018;-79
2023/05/30 09:08:44;;;;;;;7.00;1.52;;;17.10;58.60;;;;;;6104642;23;20017;-80
2023/05/30 09:11:13;;;;;;;3.63;1.55;;;17.10;58.60;;;;;;6129609;23;20321;-82
2023/05/30 09:13:41;;;;;;;4.78;1.60;;;17.10;58.50;;;;;;6129056;23;20100;-79
2023/05/30 09:16:08;;;;;;;5.95;1.85;;;17.10;58.50;;;;;;6128753;23;20425;-81
2023/05/30 09:18:35;;;;;;;5.43;1.52;;;17.20;58.30;;;;;;6104249;23;20471;-80
2023/05/30 09:21:03;;;;;;;4.35;1.58;;;17.20;58.30;;;;;;6128653;23;20037;-78
2023/05/30 09:23:31;;;;;;;7.82;1.67;;;17.30;58.10;;;;;;6129236;23;20071;-78
2023/05/30 09:26:02;;;;;;;4.32;1.55;;;17.30;58.10;;;;;;6153213;23;20052;-77
2023/05/30 09:28:33;;;;;;;3.80;1.67;;;17.40;57.90;;;;;;6129525;23;20455;-85
2023/05/30 09:31:01;;;;;;;4.18;1.67;;;17.50;57.60;;;;;;6105526;23;20028;-84
2023/05/30 09:33:43;;;;;;;5.47;1.65;;;17.60;57.50;;;;;;6129406;23;20024;-84
2023/05/30 09:36:15;;;;;;;5.35;1.63;;;17.70;57.30;;;;;;6153355;23;20345;-83
2023/05/30 09:39:12;;;;;;;4.10;1.60;;;17.90;57.10;;;;;;6129345;23;20507;-84
2023/05/30 09:41:39;;;;;;;5.22;1.38;;;18.10;56.70;;;;;;6116467;23;20081;-83
2023/05/30 09:44:10;;;;;;;3.53;1.05;;;18.20;56.70;;;;;;6099371;23;20423;-82
2023/05/30 09:46:38;;;;;;;1.90;0.85;;;18.30;56.40;;;;;;6125744;23;20014;-82
2023/05/30 09:49:14;;;;;;;3.45;1.25;;;18.50;56.30;;;;;;6100401;23;20021;-84
2023/05/30 09:51:41;;;;;;;4.75;1.15;;;18.50;56.00;;;;;;6124421;23;20018;-84
2023/05/30 09:54:09;;;;;;;3.53;1.30;;;18.50;56.00;;;;;;6125278;23;20026;-83
2023/05/30 09:56:41;;;;;;;5.30;1.45;;;18.50;56.00;;;;;;6102938;23;20053;-84
2023/05/30 09:59:10;;;;;;;5.13;2.08;;;18.50;55.90;;;;;;6102203;23;20456;-89
2023/05/30 10:02:00;;;;;;;4.63;1.40;;;18.60;55.90;;;;;;6127298;23;20100;-90
2023/05/30 10:04:28;;;;;;;3.05;1.58;;;18.60;55.90;;;;;;6127184;23;20856;-91
2023/05/30 10:06:59;;;;;;;2.45;0.95;;;18.70;55.70;;;;;;6127458;23;20029;-91
2023/05/30 10:09:40;;;;;;;3.63;1.37;;;18.70;55.60;;;;;;6127181;23;20116;-92
2023/05/30 10:12:26;;;;;;;4.93;1.55;;;18.80;55.40;;;;;;6126988;23;20407;-90
2023/05/30 10:14:59;;;;;;;3.58;1.70;;;18.70;55.30;;;;;;6127268;23;20170;-90
2023/05/30 10:17:38;;;;;;;4.72;1.33;;;18.70;55.50;;;;;;6128852;23;20026;-89
2023/05/30 10:20:09;;;;;;;3.85;1.27;;;18.80;55.30;;;;;;6151785;23;20036;-90
2023/05/30 10:22:46;;;;;;;4.20;1.10;;;18.80;55.10;;;;;;6126284;23;20033;-88
2023/05/30 10:25:15;;;;;;;3.65;1.50;;;19.00;55.10;;;;;;6151188;23;20018;-89
2023/05/30 10:27:47;;;;;;;2.90;0.93;;;19.00;54.90;;;;;;6102958;23;20045;-90
2023/05/30 10:30:27;;;;;;;2.80;1.23;;;19.10;54.80;;;;;;6150499;23;20022;-80
2023/05/30 10:33:20;;;;;;;4.55;1.15;;;19.10;54.60;;;;;;6126051;23;20073;-85
2023/05/30 10:36:34;;;;;;;4.78;1.58;;;19.30;54.50;;;;;;6150202;23;20097;-84
2023/05/30 10:39:52;;;;;;;3.22;1.25;;;19.40;54.30;;;;;;6125792;23;20009;-85
2023/05/30 10:43:06;;;;;;;5.10;1.55;;;19.50;53.80;;;;;;6102166;23;20112;-86
2023/05/30 10:46:02;;;;;;;3.75;1.25;;;19.60;54.50;;;;;;6132201;23;20021;-83
2023/05/30 10:49:29;;;;;;;4.30;1.60;;;19.70;53.70;;;;;;6131779;23;20104;-85
2023/05/30 10:52:26;;;;;;;3.90;1.10;;;19.70;53.40;;;;;;6150036;23;20021;-85
2023/05/30 10:54:54;;;;;;;4.35;1.52;;;19.70;53.30;;;;;;6099953;23;20072;-78
2023/05/30 10:57:31;;;;;;;4.45;1.50;;;19.70;53.30;;;;;;6099545;23;20064;-77
2023/05/30 11:00:21;;;;;;;4.47;1.45;;;19.70;53.10;;;;;;6100929;23;20022;-78
2023/05/30 11:02:54;;;;;;;4.55;1.33;;;19.70;52.90;;;;;;6099555;23;20089;-82
2023/05/30 11:05:32;;;;;;;5.68;1.45;;;19.90;52.80;;;;;;6099451;23;20145;-90
2023/05/30 11:13:08;;;;;;;2.95;0.98;;;20.10;52.40;;;;;;6126617;23;20009;-88
2023/05/30 11:15:47;;;;;;;3.25;1.10;;;20.30;52.40;;;;;;6083312;23;20026;-84
2023/05/30 11:18:16;;;;;;;3.67;1.33;;;20.30;52.90;;;;;;6124048;23;20393;-84
2023/05/30 11:20:58;;;;;;;4.63;1.30;;;20.30;52.10;;;;;;6100262;23;20025;-84
2023/05/30 11:23:50;;;;;;;2.50;1.00;;;20.40;52.10;;;;;;6099330;23;20069;-82
2023/05/30 11:27:12;;;;;;;4.40;1.25;;;20.30;52.10;;;;;;6123377;23;20479;-83
2023/05/30 11:29:57;;;;;;;3.53;1.23;;;20.30;52.10;;;;;;6075268;23;20041;-84
2023/05/30 11:32:29;;;;;;;4.10;1.30;;;20.30;51.90;;;;;;6076138;23;20022;-83
2023/05/30 11:38:32;;;;;;;2.92;1.45;;;20.50;51.60;;;;;;6139781;23;20025;-79
2023/05/30 11:41:01;;;;;;;4.53;2.08;;;20.60;51.50;;;;;;6105654;23;20029;-81
2023/05/30 11:43:32;;;;;;;4.10;1.05;;;20.70;51.40;;;;;;6130478;23;20017;-80
2023/05/30 11:45:59;;;;;;;4.10;1.30;;;20.90;51.10;;;;;;6105072;23;20325;-79
2023/05/30 11:49:09;;;;;;;1.75;0.90;;;21.00;50.80;;;;;;6105660;23;20017;-83
2023/05/30 11:51:57;;;;;;;5.18;1.52;;;21.30;50.40;;;;;;6154560;23;20009;-83
2023/05/30 11:54:27;;;;;;;4.32;1.60;;;21.50;50.20;;;;;;6154268;23;20041;-85
2023/05/30 11:56:56;;;;;;;3.55;1.52;;;21.60;49.70;;;;;;6154689;23;20021;-82
2023/05/30 11:59:44;;;;;;;4.10;0.95;;;21.80;49.50;;;;;;6106222;23;20028;-87
2023/05/30 12:02:15;;;;;;;5.50;1.52;;;22.10;49.30;;;;;;6130249;23;20025;-86
2023/05/30 12:04:43;;;;;;;3.20;1.05;;;22.40;48.70;;;;;;6130227;23;20018;-81
2023/05/30 12:07:13;;;;;;;2.65;0.90;;;22.60;48.60;;;;;;6105253;23;20361;-81
2023/05/30 12:09:41;;;;;;;2.80;1.17;;;22.90;48.40;;;;;;6129981;23;20031;-78
2023/05/30 12:12:08;;;;;;;3.17;1.00;;;23.10;48.00;;;;;;6154081;23;20049;-78
2023/05/30 12:15:01;;;;;;;4.57;1.08;;;23.20;48.00;;;;;;6155325;23;20318;-78
2023/05/30 12:17:30;;;;;;;4.28;1.35;;;23.40;47.50;;;;;;6153642;23;20025;-79
2023/05/30 12:20:00;;;;;;;2.63;0.80;;;23.50;47.40;;;;;;6129630;23;20013;-78
2023/05/30 12:22:30;;;;;;;3.15;0.73;;;23.80;47.20;;;;;;6128972;23;20515;-78
2023/05/30 12:24:58;;;;;;;2.92;1.27;;;24.10;46.80;;;;;;6105711;23;20096;-78
2023/05/30 12:27:26;;;;;;;4.85;1.40;;;24.50;46.60;;;;;;6153584;23;20021;-79
2023/05/30 12:29:54;;;;;;;2.35;1.00;;;24.70;46.20;;;;;;6153270;23;20021;-77
2023/05/30 12:32:26;;;;;;;1.77;0.77;;;24.80;45.90;;;;;;6104680;23;20018;-77
2023/05/30 12:34:58;;;;;;;4.10;1.08;;;25.10;45.50;;;;;;6153538;23;20025;-77
2023/05/30 12:37:25;;;;;;;2.40;1.00;;;25.10;45.40;;;;;;6154989;23;20021;-78
2023/05/30 12:39:56;;;;;;;2.67;0.80;;;25.20;45.60;;;;;;6129458;23;20021;-79
2023/05/30 12:42:25;;;;;;;3.42;1.17;;;25.30;45.40;;;;;;6129051;23;20031;-78
2023/05/30 12:44:53;;;;;;;2.67;1.10;;;25.60;45.10;;;;;;6124498;23;20041;-79
2023/05/30 12:47:21;;;;;;;2.33;0.90;;;25.90;45.00;;;;;;6124143;23;20042;-78
2023/05/30 12:49:49;;;;;;;2.55;0.80;;;26.00;44.80;;;;;;6099995;23;20043;-79
2023/05/30 12:52:19;;;;;;;4.15;0.93;;;25.90;44.80;;;;;;6124042;23;20405;-79
2023/05/30 12:54:47;;;;;;;2.38;1.10;;;26.20;44.80;;;;;;6123935;23;20363;-79
2023/05/30 12:57:14;;;;;;;2.78;0.70;;;26.50;44.60;;;;;;6099998;23;20026;-79
2023/05/30 12:59:41;;;;;;;2.88;1.00;;;26.70;44.20;;;;;;6124177;23;20026;-79
2023/05/30 13:02:12;;;;;;;4.53;1.05;;;26.90;44.10;;;;;;6100068;23;20449;-78
2023/05/30 13:04:40;;;;;;;3.83;0.85;;;26.90;44.00;;;;;;6100473;23;20049;-85
2023/05/30 13:07:20;;;;;;;2.22;1.05;;;26.80;44.10;;;;;;6124734;23;20102;-88
2023/05/30 13:09:48;;;;;;;2.05;0.80;;;27.10;44.00;;;;;;6148893;23;20018;-77
2023/05/30 13:12:16;;;;;;;2.33;0.88;;;27.30;43.80;;;;;;6123767;23;20080;-77
2023/05/30 13:14:45;;;;;;;1.35;0.80;;;27.30;43.60;;;;;;6125343;23;20032;-82
2023/05/30 13:17:13;;;;;;;1.77;0.60;;;27.50;43.50;;;;;;6148298;23;20470;-80
2023/05/30 13:19:40;;;;;;;2.40;1.15;;;27.80;43.40;;;;;;6148382;23;20121;-84